Time;durP1;ratioP1;P1;durP2;ratioP2;P2;SDS_P1;SDS_P2;PMS_P1;PMS_P2;Temp;Humidity;BMP_temperature;BMP_pressure;BME280_temperature;BME280_humidity;BME280_pressure;Samples;Min_cycle;Max_cycle;Signal;HPM_P1;HPM_P2
2021/08/16 00:02:08;;;;;;;13.17;7.80;;;;;;;;;;5054857;28;20206;-74
2021/08/16 00:04:33;;;;;;;15.43;8.00;;;;;;;;;;5050054;28;20635;-74
2021/08/16 00:06:59;;;;;;;14.03;7.37;;;;;;;;;;5057827;28;20661;-73
2021/08/16 00:09:24;;;;;;;13.30;8.27;;;;;;;;;;5054782;28;20225;-74
2021/08/16 00:11:49;;;;;;;12.50;7.80;;;;;;;;;;5051608;28;20185;-72
2021/08/16 00:14:14;;;;;;;17.13;9.77;;;;;;;;;;5053148;28;20184;-73
2021/08/16 00:16:40;;;;;;;13.93;8.10;;;;;;;;;;5054202;28;20688;-74
2021/08/16 00:19:05;;;;;;;13.23;7.93;;;;;;;;;;5054887;28;20187;-72
2021/08/16 00:21:30;;;;;;;13.20;9.30;;;;;;;;;;5059882;28;20186;-74
2021/08/16 00:23:55;;;;;;;14.37;9.67;;;;;;;;;;5050040;28;20171;-74
2021/08/16 00:26:21;;;;;;;13.10;9.57;;;;;;;;;;5053025;28;20234;-75
2021/08/16 00:28:46;;;;;;;13.10;9.60;;;;;;;;;;5054789;28;20168;-75
2021/08/16 00:31:11;;;;;;;14.90;9.47;;;;;;;;;;5055895;28;20639;-75
2021/08/16 00:33:37;;;;;;;18.93;10.37;;;;;;;;;;5049135;28;20183;-75
2021/08/16 00:36:02;;;;;;;13.70;10.37;;;;;;;;;;5052675;28;20194;-74
2021/08/16 00:38:27;;;;;;;13.63;9.80;;;;;;;;;;5059389;28;20656;-74
2021/08/16 00:40:53;;;;;;;15.00;10.70;;;;;;;;;;5052027;28;20175;-74
2021/08/16 00:43:19;;;;;;;16.50;11.50;;;;;;;;;;5054850;28;20203;-75
2021/08/16 00:45:45;;;;;;;19.50;12.00;;;;;;;;;;5053766;28;22179;-75
2021/08/16 00:48:10;;;;;;;19.67;12.37;;;;;;;;;;5048479;28;20322;-75
2021/08/16 00:50:35;;;;;;;17.70;12.00;;;;;;;;;;5058036;28;20434;-76
2021/08/16 00:53:01;;;;;;;16.37;12.37;;;;;;;;;;5052543;28;20167;-75
2021/08/16 00:55:26;;;;;;;19.60;12.10;;;;;;;;;;5059497;28;20192;-75
2021/08/16 00:57:51;;;;;;;16.07;11.07;;;;;;;;;;5052755;28;20294;-76
2021/08/16 01:00:17;;;;;;;13.37;10.03;;;;;;;;;;5055622;28;20195;-76
2021/08/16 01:02:42;;;;;;;21.53;12.40;;;;;;;;;;5054568;28;20245;-76
2021/08/16 01:05:10;;;;;;;13.23;10.60;;;;;;;;;;5047739;28;20214;-76
2021/08/16 01:07:35;;;;;;;12.47;9.47;;;;;;;;;;5048189;28;20190;-75
2021/08/16 01:10:01;;;;;;;16.33;10.10;;;;;;;;;;5054977;28;21255;-76
2021/08/16 01:12:28;;;;;;;13.00;9.60;;;;;;;;;;5052749;28;20183;-76
2021/08/16 01:14:53;;;;;;;10.77;7.97;;;;;;;;;;5052465;28;20214;-76
2021/08/16 01:17:18;;;;;;;12.53;8.40;;;;;;;;;;5049570;28;20923;-76
2021/08/16 01:19:43;;;;;;;14.90;9.50;;;;;;;;;;5053961;28;20233;-75
2021/08/16 01:22:09;;;;;;;13.10;8.90;;;;;;;;;;5056937;28;20210;-75
2021/08/16 01:24:34;;;;;;;11.37;8.60;;;;;;;;;;5052938;28;20229;-75
2021/08/16 01:27:04;;;;;;;13.10;8.50;;;;;;;;;;5054116;28;20595;-75
2021/08/16 01:29:29;;;;;;;10.60;7.70;;;;;;;;;;5053958;28;20600;-76
2021/08/16 01:31:54;;;;;;;12.10;7.83;;;;;;;;;;5056583;28;20445;-76
2021/08/16 01:34:20;;;;;;;10.57;7.17;;;;;;;;;;5048766;28;20215;-76
2021/08/16 01:36:45;;;;;;;10.30;7.10;;;;;;;;;;5051019;28;20269;-75
2021/08/16 01:39:10;;;;;;;9.10;6.33;;;;;;;;;;5054716;28;20926;-75
2021/08/16 01:41:35;;;;;;;11.40;6.13;;;;;;;;;;5057500;28;20171;-75
2021/08/16 01:44:01;;;;;;;10.00;6.57;;;;;;;;;;5051959;28;20544;-75
2021/08/16 01:46:26;;;;;;;9.00;5.57;;;;;;;;;;5049092;28;20203;-75
2021/08/16 01:48:52;;;;;;;12.03;5.80;;;;;;;;;;5049903;28;20182;-75
2021/08/16 01:51:17;;;;;;;6.73;5.40;;;;;;;;;;5050493;28;20187;-75
2021/08/16 01:53:42;;;;;;;6.90;4.63;;;;;;;;;;5054399;28;21150;-75
2021/08/16 01:56:08;;;;;;;10.77;5.27;;;;;;;;;;5052928;28;20229;-75
2021/08/16 01:58:33;;;;;;;9.17;4.80;;;;;;;;;;5053007;28;20207;-76
2021/08/16 02:00:58;;;;;;;10.20;5.30;;;;;;;;;;5049220;28;20183;-75
2021/08/16 02:03:23;;;;;;;8.53;4.47;;;;;;;;;;5048520;28;20211;-76
2021/08/16 02:05:49;;;;;;;7.27;4.40;;;;;;;;;;5051058;28;20179;-75
2021/08/16 02:08:14;;;;;;;12.50;4.80;;;;;;;;;;5045410;28;20196;-75
2021/08/16 02:10:39;;;;;;;6.47;3.30;;;;;;;;;;5046109;28;20936;-75
2021/08/16 02:13:04;;;;;;;7.57;4.40;;;;;;;;;;5044447;28;20184;-75
2021/08/16 02:15:30;;;;;;;12.73;5.00;;;;;;;;;;5048903;28;20190;-75
2021/08/16 02:17:55;;;;;;;11.20;4.17;;;;;;;;;;5053007;28;20655;-75
2021/08/16 02:20:20;;;;;;;10.40;4.63;;;;;;;;;;5048954;28;20180;-75
2021/08/16 02:22:46;;;;;;;9.30;4.00;;;;;;;;;;5048319;28;20934;-76
2021/08/16 02:25:12;;;;;;;8.23;3.50;;;;;;;;;;5051270;28;20199;-76
2021/08/16 02:27:47;;;;;;;8.73;3.93;;;;;;;;;;5052787;28;20667;-75
2021/08/16 02:30:13;;;;;;;9.60;4.00;;;;;;;;;;5051670;28;20455;-75
2021/08/16 02:32:38;;;;;;;8.63;3.80;;;;;;;;;;5044190;28;20441;-75
2021/08/16 02:35:04;;;;;;;9.47;4.00;;;;;;;;;;5048921;28;20800;-75
2021/08/16 02:37:29;;;;;;;15.23;4.43;;;;;;;;;;5044445;28;20309;-75
2021/08/16 02:39:54;;;;;;;7.50;4.03;;;;;;;;;;5047445;28;20213;-75
2021/08/16 02:42:20;;;;;;;12.63;5.30;;;;;;;;;;5055407;28;23459;-75
2021/08/16 02:44:45;;;;;;;10.10;4.37;;;;;;;;;;5048795;28;20640;-75
2021/08/16 02:47:10;;;;;;;12.10;4.33;;;;;;;;;;5050342;28;20188;-75
2021/08/16 02:49:35;;;;;;;12.07;4.60;;;;;;;;;;5049827;28;20229;-75
2021/08/16 02:52:03;;;;;;;11.90;4.87;;;;;;;;;;5049421;28;20182;-75
2021/08/16 02:54:28;;;;;;;10.40;4.47;;;;;;;;;;5052351;28;20258;-76
2021/08/16 02:56:53;;;;;;;12.20;5.00;;;;;;;;;;5050622;28;20536;-75
2021/08/16 02:59:18;;;;;;;10.93;4.67;;;;;;;;;;5049861;28;20274;-75
2021/08/16 03:01:44;;;;;;;11.20;5.40;;;;;;;;;;5043989;28;20642;-75
2021/08/16 03:04:09;;;;;;;8.97;4.80;;;;;;;;;;5050216;28;20620;-75
2021/08/16 03:06:34;;;;;;;11.20;5.07;;;;;;;;;;5049408;28;20230;-75
2021/08/16 03:08:59;;;;;;;8.07;4.47;;;;;;;;;;5051336;28;20176;-75
2021/08/16 03:11:26;;;;;;;13.40;5.37;;;;;;;;;;5050043;28;20269;-75
2021/08/16 03:13:51;;;;;;;10.80;4.67;;;;;;;;;;5051632;28;20187;-75
2021/08/16 03:16:17;;;;;;;11.20;4.87;;;;;;;;;;5051841;28;20550;-75
2021/08/16 03:18:42;;;;;;;9.63;4.87;;;;;;;;;;5057067;28;20189;-75
2021/08/16 03:21:07;;;;;;;8.10;4.50;;;;;;;;;;5050563;28;20239;-75
2021/08/16 03:23:33;;;;;;;12.63;4.40;;;;;;;;;;5050834;28;20319;-75
2021/08/16 03:25:58;;;;;;;7.43;4.77;;;;;;;;;;5048387;28;20193;-75
2021/08/16 03:28:23;;;;;;;13.77;4.70;;;;;;;;;;5059816;28;20207;-75
2021/08/16 03:30:49;;;;;;;13.20;4.93;;;;;;;;;;5048042;28;20267;-75
2021/08/16 03:33:14;;;;;;;10.03;4.70;;;;;;;;;;5050644;28;20195;-75
2021/08/16 03:35:40;;;;;;;9.50;4.70;;;;;;;;;;5052677;28;20191;-75
2021/08/16 03:38:05;;;;;;;10.87;4.53;;;;;;;;;;5052966;28;20202;-75
2021/08/16 03:40:30;;;;;;;7.87;4.10;;;;;;;;;;5053810;28;20218;-75
2021/08/16 03:42:55;;;;;;;16.50;5.37;;;;;;;;;;5054343;28;20248;-75
2021/08/16 03:45:21;;;;;;;5.30;4.30;;;;;;;;;;5049625;28;20176;-75
2021/08/16 03:47:46;;;;;;;8.50;4.70;;;;;;;;;;5049371;28;20198;-75
2021/08/16 03:50:11;;;;;;;9.27;4.37;;;;;;;;;;5058121;28;20207;-75
2021/08/16 03:52:36;;;;;;;5.43;3.60;;;;;;;;;;5053586;28;20230;-75
2021/08/16 03:55:02;;;;;;;7.50;3.80;;;;;;;;;;5048351;28;20232;-75
2021/08/16 03:57:27;;;;;;;7.93;3.80;;;;;;;;;;5048619;28;20210;-75
2021/08/16 03:59:53;;;;;;;12.90;4.60;;;;;;;;;;5050450;28;20313;-75
2021/08/16 04:02:18;;;;;;;8.20;4.40;;;;;;;;;;5052135;28;20207;-75
2021/08/16 04:04:43;;;;;;;7.50;3.83;;;;;;;;;;5053714;28;20564;-75
2021/08/16 04:07:08;;;;;;;10.27;4.40;;;;;;;;;;5052729;28;20208;-75
2021/08/16 04:09:34;;;;;;;9.97;4.37;;;;;;;;;;5052724;28;20547;-75
2021/08/16 04:11:59;;;;;;;7.03;3.73;;;;;;;;;;5048357;28;20603;-76
2021/08/16 04:14:24;;;;;;;8.30;3.83;;;;;;;;;;5061551;28;20829;-75
2021/08/16 04:16:49;;;;;;;6.67;3.67;;;;;;;;;;5052232;28;20693;-75
2021/08/16 04:19:16;;;;;;;10.33;3.90;;;;;;;;;;5054552;28;20175;-76
2021/08/16 04:21:42;;;;;;;6.80;3.20;;;;;;;;;;5054447;28;20236;-76
2021/08/16 04:24:07;;;;;;;5.53;3.20;;;;;;;;;;5052500;28;20438;-75
2021/08/16 04:26:32;;;;;;;9.27;3.90;;;;;;;;;;5053472;28;20298;-75
2021/08/16 04:28:57;;;;;;;10.30;4.03;;;;;;;;;;5049168;28;20183;-75
2021/08/16 04:31:22;;;;;;;9.90;5.33;;;;;;;;;;5054552;28;20187;-75
2021/08/16 04:33:48;;;;;;;7.47;3.63;;;;;;;;;;5052861;28;20187;-75
2021/08/16 04:36:13;;;;;;;14.77;3.40;;;;;;;;;;5049233;28;20242;-75
2021/08/16 04:38:38;;;;;;;6.67;3.40;;;;;;;;;;5054134;28;20186;-75
2021/08/16 04:41:03;;;;;;;9.03;3.03;;;;;;;;;;5053877;28;20187;-75
2021/08/16 04:43:29;;;;;;;8.10;3.30;;;;;;;;;;5050448;28;20572;-75
2021/08/16 04:45:54;;;;;;;13.33;3.80;;;;;;;;;;5050579;28;20171;-75
2021/08/16 04:48:19;;;;;;;7.83;3.67;;;;;;;;;;5049437;28;20341;-74
2021/08/16 04:50:45;;;;;;;6.27;3.50;;;;;;;;;;5061325;28;20175;-75
2021/08/16 04:53:10;;;;;;;8.17;3.40;;;;;;;;;;5049799;28;20197;-75
2021/08/16 04:55:35;;;;;;;8.30;3.30;;;;;;;;;;5048809;28;20176;-75
2021/08/16 04:58:01;;;;;;;7.47;3.40;;;;;;;;;;5043736;28;20211;-75
2021/08/16 05:00:26;;;;;;;6.77;3.13;;;;;;;;;;5050116;28;20244;-75
2021/08/16 05:02:55;;;;;;;6.07;2.93;;;;;;;;;;5056843;28;20214;-74
2021/08/16 05:05:23;;;;;;;7.50;2.57;;;;;;;;;;5050144;28;20191;-74
2021/08/16 05:07:53;;;;;;;9.83;3.20;;;;;;;;;;5048283;28;20454;-75
2021/08/16 05:10:19;;;;;;;5.43;3.00;;;;;;;;;;5048413;28;20484;-75
2021/08/16 05:12:44;;;;;;;7.07;2.63;;;;;;;;;;5057302;28;20893;-74
2021/08/16 05:15:10;;;;;;;6.80;2.77;;;;;;;;;;5057567;28;20485;-75
2021/08/16 05:17:35;;;;;;;6.50;3.10;;;;;;;;;;5050572;28;20199;-75
2021/08/16 05:20:03;;;;;;;5.60;3.20;;;;;;;;;;5054925;28;20184;-75
2021/08/16 05:22:28;;;;;;;8.93;3.30;;;;;;;;;;5052777;28;20277;-75
2021/08/16 05:24:53;;;;;;;8.00;3.00;;;;;;;;;;5052704;28;20537;-75
2021/08/16 05:27:18;;;;;;;12.27;3.43;;;;;;;;;;5056705;28;20313;-74
2021/08/16 05:29:44;;;;;;;10.90;4.07;;;;;;;;;;5049879;28;20179;-74
2021/08/16 05:32:09;;;;;;;7.87;3.43;;;;;;;;;;5053042;28;20235;-74
2021/08/16 05:34:35;;;;;;;9.30;3.87;;;;;;;;;;5050928;28;20267;-75
2021/08/16 05:37:00;;;;;;;6.80;4.00;;;;;;;;;;5052535;28;20213;-74
2021/08/16 05:39:25;;;;;;;9.67;3.67;;;;;;;;;;5053789;28;20229;-75
2021/08/16 05:41:50;;;;;;;6.30;2.77;;;;;;;;;;5051374;28;20183;-75
2021/08/16 05:44:16;;;;;;;8.23;3.40;;;;;;;;;;5051864;28;20794;-74
2021/08/16 05:46:41;;;;;;;6.27;3.07;;;;;;;;;;5054842;28;20627;-75
2021/08/16 05:49:06;;;;;;;5.37;3.10;;;;;;;;;;5057472;28;20183;-74
2021/08/16 05:51:31;;;;;;;6.00;2.90;;;;;;;;;;5050358;28;20183;-74
2021/08/16 05:53:57;;;;;;;8.70;3.07;;;;;;;;;;5052536;28;20231;-75
2021/08/16 05:56:22;;;;;;;5.20;2.60;;;;;;;;;;5048328;28;20211;-74
2021/08/16 05:58:47;;;;;;;9.70;3.20;;;;;;;;;;5049961;28;20176;-75
2021/08/16 06:01:12;;;;;;;6.87;3.17;;;;;;;;;;5049880;28;20203;-75
2021/08/16 06:03:38;;;;;;;5.97;3.20;;;;;;;;;;5055283;28;20211;-74
2021/08/16 06:06:03;;;;;;;4.70;3.00;;;;;;;;;;5046821;28;20182;-75
2021/08/16 06:08:28;;;;;;;2.30;1.70;;;;;;;;;;5039300;28;20913;-75
2021/08/16 06:10:53;;;;;;;10.10;2.90;;;;;;;;;;5048791;28;20183;-75
2021/08/16 06:13:19;;;;;;;7.90;2.63;;;;;;;;;;5061704;28;20183;-74
2021/08/16 06:15:44;;;;;;;5.23;2.30;;;;;;;;;;5052829;28;20240;-76
2021/08/16 06:18:09;;;;;;;4.10;2.20;;;;;;;;;;5053711;28;20737;-75
2021/08/16 06:20:34;;;;;;;7.20;2.90;;;;;;;;;;5056312;28;20573;-75
2021/08/16 06:22:59;;;;;;;5.50;2.23;;;;;;;;;;5050371;28;20207;-76
2021/08/16 06:25:25;;;;;;;5.00;2.27;;;;;;;;;;5051509;28;20203;-75
2021/08/16 06:27:50;;;;;;;6.37;2.23;;;;;;;;;;5050705;28;20191;-75
2021/08/16 06:30:15;;;;;;;5.87;2.27;;;;;;;;;;5050862;28;20171;-75
2021/08/16 06:32:40;;;;;;;3.80;2.20;;;;;;;;;;5049644;28;20210;-74
2021/08/16 06:35:06;;;;;;;6.37;2.30;;;;;;;;;;5046294;28;20779;-75
2021/08/16 06:37:32;;;;;;;2.90;2.33;;;;;;;;;;5047720;28;20207;-76
2021/08/16 06:39:57;;;;;;;8.27;2.90;;;;;;;;;;5052272;28;20491;-75
2021/08/16 06:42:22;;;;;;;5.00;2.67;;;;;;;;;;5065005;28;20285;-77
2021/08/16 06:44:48;;;;;;;5.70;2.67;;;;;;;;;;5058448;28;20203;-75
2021/08/16 06:47:13;;;;;;;3.90;2.70;;;;;;;;;;5055462;28;20203;-73
2021/08/16 06:49:39;;;;;;;5.37;2.90;;;;;;;;;;5054679;28;20649;-73
2021/08/16 06:52:04;;;;;;;3.63;2.60;;;;;;;;;;5060896;28;20179;-74
2021/08/16 06:54:30;;;;;;;3.93;2.37;;;;;;;;;;5062071;28;20179;-74
2021/08/16 06:56:55;;;;;;;4.03;2.70;;;;;;;;;;5054994;28;20196;-74
2021/08/16 06:59:22;;;;;;;4.77;2.90;;;;;;;;;;5058568;28;20187;-75
2021/08/16 07:01:49;;;;;;;5.83;2.97;;;;;;;;;;5056027;28;20348;-75
2021/08/16 07:04:14;;;;;;;3.63;2.20;;;;;;;;;;5047722;28;20434;-75
2021/08/16 07:06:39;;;;;;;7.50;2.57;;;;;;;;;;5050041;28;20450;-75
2021/08/16 07:09:05;;;;;;;4.90;2.53;;;;;;;;;;5046288;28;20244;-75
2021/08/16 07:11:30;;;;;;;4.03;2.40;;;;;;;;;;5055081;28;20180;-75
2021/08/16 07:13:55;;;;;;;6.33;2.90;;;;;;;;;;5056822;28;20211;-75
2021/08/16 07:16:21;;;;;;;6.40;2.63;;;;;;;;;;5061052;28;20199;-76
2021/08/16 07:18:47;;;;;;;4.53;2.73;;;;;;;;;;5056861;28;20184;-75
2021/08/16 07:21:12;;;;;;;11.20;2.83;;;;;;;;;;5052119;28;21477;-75
2021/08/16 07:23:38;;;;;;;6.83;2.80;;;;;;;;;;5054425;28;20207;-76
2021/08/16 07:26:03;;;;;;;4.57;2.37;;;;;;;;;;5053135;28;20190;-76
2021/08/16 07:28:29;;;;;;;5.60;2.50;;;;;;;;;;5056755;28;20179;-76
2021/08/16 07:30:55;;;;;;;2.87;1.87;;;;;;;;;;5053572;28;20191;-75
2021/08/16 07:33:20;;;;;;;3.10;1.77;;;;;;;;;;5048549;28;20183;-76
2021/08/16 07:35:45;;;;;;;5.40;2.20;;;;;;;;;;5056283;28;20171;-75
2021/08/16 07:38:11;;;;;;;3.83;1.97;;;;;;;;;;5058025;28;20214;-76
2021/08/16 07:40:36;;;;;;;2.30;1.40;;;;;;;;;;5054204;28;20273;-76
2021/08/16 07:43:01;;;;;;;2.30;2.10;;;;;;;;;;5046417;28;20322;-76
2021/08/16 07:45:26;;;;;;;5.30;1.97;;;;;;;;;;5057564;28;20183;-76
2021/08/16 07:47:53;;;;;;;3.40;2.30;;;;;;;;;;5047956;28;20203;-76
2021/08/16 07:50:19;;;;;;;3.60;2.13;;;;;;;;;;5056180;28;20186;-76
2021/08/16 07:52:44;;;;;;;6.47;2.43;;;;;;;;;;5058493;28;20551;-76
2021/08/16 07:55:10;;;;;;;4.00;2.27;;;;;;;;;;5052965;28;20221;-75
2021/08/16 07:57:36;;;;;;;2.70;2.00;;;;;;;;;;5050957;28;20276;-75
2021/08/16 08:00:01;;;;;;;4.63;1.60;;;;;;;;;;5055515;28;20278;-76
2021/08/16 08:02:37;;;;;;;2.67;2.10;;;;;;;;;;5063133;28;20248;-75
2021/08/16 08:05:04;;;;;;;4.40;1.93;;;;;;;;;;5046521;28;20671;-76
2021/08/16 08:07:29;;;;;;;5.77;2.00;;;;;;;;;;5048481;28;21012;-76
2021/08/16 08:09:54;;;;;;;6.20;2.17;;;;;;;;;;5051326;28;20537;-75
2021/08/16 08:12:19;;;;;;;6.20;2.10;;;;;;;;;;5044344;28;20570;-75
2021/08/16 08:14:45;;;;;;;11.27;2.23;;;;;;;;;;5049244;28;20187;-75
2021/08/16 08:17:10;;;;;;;3.83;2.07;;;;;;;;;;5056339;28;20696;-76
2021/08/16 08:19:35;;;;;;;4.43;1.70;;;;;;;;;;5056504;28;20191;-75
2021/08/16 08:22:00;;;;;;;3.70;2.07;;;;;;;;;;5055340;28;22077;-76
2021/08/16 08:24:25;;;;;;;5.50;1.90;;;;;;;;;;5054075;28;20264;-77
2021/08/16 08:26:51;;;;;;;6.17;1.67;;;;;;;;;;5054673;28;20256;-75
2021/08/16 08:29:16;;;;;;;3.30;1.40;;;;;;;;;;5059386;28;20998;-77
2021/08/16 08:31:41;;;;;;;5.10;1.97;;;;;;;;;;5056377;28;20589;-75
2021/08/16 08:34:07;;;;;;;4.40;1.90;;;;;;;;;;5054650;28;20928;-76
2021/08/16 08:36:32;;;;;;;4.53;1.80;;;;;;;;;;5053693;28;20195;-75
2021/08/16 08:38:58;;;;;;;5.90;1.73;;;;;;;;;;5052231;28;20257;-76
2021/08/16 08:41:24;;;;;;;3.93;1.53;;;;;;;;;;5051628;28;20183;-77
2021/08/16 08:43:49;;;;;;;6.93;1.50;;;;;;;;;;5051264;28;20207;-77
2021/08/16 08:46:17;;;;;;;4.00;1.73;;;;;;;;;;5055068;28;20466;-76
2021/08/16 08:48:42;;;;;;;6.53;1.80;;;;;;;;;;5064270;28;20270;-80
2021/08/16 08:51:07;;;;;;;8.13;2.47;;;;;;;;;;5054031;28;20986;-78
2021/08/16 08:53:33;;;;;;;7.60;2.00;;;;;;;;;;5055436;28;20195;-78
2021/08/16 08:55:58;;;;;;;3.40;1.77;;;;;;;;;;5051753;28;20183;-77
2021/08/16 08:58:23;;;;;;;6.03;2.10;;;;;;;;;;5050932;28;20219;-76
2021/08/16 09:00:48;;;;;;;4.07;2.10;;;;;;;;;;5054134;28;20285;-75
2021/08/16 09:03:14;;;;;;;3.87;1.80;;;;;;;;;;5054254;28;20195;-76
2021/08/16 09:05:53;;;;;;;2.87;2.00;;;;;;;;;;5051561;28;20178;-77
2021/08/16 09:08:22;;;;;;;6.53;2.07;;;;;;;;;;5052590;28;20367;-76
2021/08/16 09:10:49;;;;;;;5.30;2.00;;;;;;;;;;5052490;28;20429;-79
2021/08/16 09:13:22;;;;;;;7.03;2.40;;;;;;;;;;5052810;28;20469;-73
2021/08/16 09:15:47;;;;;;;8.90;2.57;;;;;;;;;;5060146;28;20659;-72
2021/08/16 09:18:13;;;;;;;6.60;2.63;;;;;;;;;;5057359;28;21297;-74
2021/08/16 09:20:38;;;;;;;6.60;2.70;;;;;;;;;;5057238;28;20593;-75
2021/08/16 09:23:05;;;;;;;4.10;2.10;;;;;;;;;;5047400;28;20290;-76
2021/08/16 09:25:34;;;;;;;2.70;2.00;;;;;;;;;;5047291;28;20647;-75
2021/08/16 09:28:00;;;;;;;9.10;3.03;;;;;;;;;;5055371;28;20829;-75
2021/08/16 09:30:43;;;;;;;5.53;2.40;;;;;;;;;;5050360;28;20437;-73
2021/08/16 09:33:12;;;;;;;8.97;2.97;;;;;;;;;;5052497;28;20179;-73
2021/08/16 09:35:47;;;;;;;10.17;2.70;;;;;;;;;;5056476;28;20441;-74
2021/08/16 09:38:13;;;;;;;8.60;2.73;;;;;;;;;;5061156;28;20444;-73
2021/08/16 09:40:38;;;;;;;7.90;2.63;;;;;;;;;;5055287;28;20440;-74
2021/08/16 09:43:03;;;;;;;8.00;2.73;;;;;;;;;;5064787;28;20226;-75
2021/08/16 09:45:28;;;;;;;5.67;2.20;;;;;;;;;;5058237;28;20261;-73
2021/08/16 09:47:56;;;;;;;7.47;2.73;;;;;;;;;;5050414;28;20200;-73
2021/08/16 09:50:22;;;;;;;8.03;2.80;;;;;;;;;;5055100;28;20183;-74
2021/08/16 09:52:47;;;;;;;4.93;2.03;;;;;;;;;;5059861;28;20487;-74
2021/08/16 09:55:12;;;;;;;6.30;2.10;;;;;;;;;;5056031;28;20306;-74
2021/08/16 09:57:39;;;;;;;8.73;2.67;;;;;;;;;;5061525;28;20663;-75
2021/08/16 10:00:04;;;;;;;5.97;1.50;;;;;;;;;;5051339;28;20626;-74
2021/08/16 10:02:29;;;;;;;4.10;1.50;;;;;;;;;;5046416;28;20456;-74
2021/08/16 10:04:58;;;;;;;6.07;1.90;;;;;;;;;;5050021;28;20272;-75
2021/08/16 10:07:26;;;;;;;6.30;1.70;;;;;;;;;;5059020;28;20686;-75
2021/08/16 10:09:52;;;;;;;3.80;1.70;;;;;;;;;;5057256;28;20468;-75
2021/08/16 10:12:18;;;;;;;7.30;2.20;;;;;;;;;;5056808;28;20448;-76
2021/08/16 10:14:44;;;;;;;7.03;1.90;;;;;;;;;;5059934;28;20429;-74
2021/08/16 10:17:09;;;;;;;3.87;1.50;;;;;;;;;;5058501;28;20210;-74
2021/08/16 10:19:41;;;;;;;3.53;1.53;;;;;;;;;;5059672;28;20437;-75
2021/08/16 10:22:07;;;;;;;10.10;2.20;;;;;;;;;;5055129;28;20199;-75
2021/08/16 10:24:32;;;;;;;5.07;1.50;;;;;;;;;;5059789;28;20426;-75
2021/08/16 10:26:58;;;;;;;3.10;1.40;;;;;;;;;;5059201;28;20569;-72
2021/08/16 10:29:24;;;;;;;12.83;2.23;;;;;;;;;;5065206;28;20213;-73
2021/08/16 10:31:50;;;;;;;5.30;2.00;;;;;;;;;;5052653;28;20454;-73
2021/08/16 10:34:28;;;;;;;7.80;2.50;;;;;;;;;;5057637;28;20286;-73
2021/08/16 10:37:12;;;;;;;8.33;2.20;;;;;;;;;;5053628;28;20533;-75
2021/08/16 10:39:39;;;;;;;7.77;2.20;;;;;;;;;;5057380;28;20413;-75
2021/08/16 10:42:07;;;;;;;8.03;2.33;;;;;;;;;;5047815;28;20686;-73
2021/08/16 10:44:40;;;;;;;5.63;1.97;;;;;;;;;;5052251;28;21160;-75
2021/08/16 10:47:05;;;;;;;6.33;2.07;;;;;;;;;;5043823;28;20449;-74
2021/08/16 10:49:40;;;;;;;7.90;2.57;;;;;;;;;;5052908;28;20433;-75
2021/08/16 10:52:17;;;;;;;11.67;2.60;;;;;;;;;;5056588;28;20194;-74
2021/08/16 10:54:42;;;;;;;10.03;2.77;;;;;;;;;;5050265;28;20508;-74
2021/08/16 10:57:10;;;;;;;6.63;2.00;;;;;;;;;;5046575;28;20925;-74
2021/08/16 10:59:35;;;;;;;4.40;2.07;;;;;;;;;;5057121;28;20225;-74
2021/08/16 11:02:00;;;;;;;4.43;2.13;;;;;;;;;;5046119;28;20813;-75
2021/08/16 11:04:27;;;;;;;6.27;2.70;;;;;;;;;;5052508;28;20181;-74
2021/08/16 11:06:53;;;;;;;7.00;2.87;;;;;;;;;;5058528;28;20340;-74
2021/08/16 11:09:23;;;;;;;8.80;2.90;;;;;;;;;;5052160;28;20424;-75
2021/08/16 11:11:52;;;;;;;6.60;2.40;;;;;;;;;;5058955;28;20754;-75
2021/08/16 11:14:22;;;;;;;15.40;2.57;;;;;;;;;;5055507;28;20425;-75
2021/08/16 11:16:47;;;;;;;7.37;2.20;;;;;;;;;;5054716;28;20545;-74
2021/08/16 11:19:12;;;;;;;6.97;2.70;;;;;;;;;;5052143;28;20496;-74
2021/08/16 11:21:38;;;;;;;8.60;3.03;;;;;;;;;;5057594;28;20186;-74
2021/08/16 11:24:03;;;;;;;13.00;2.73;;;;;;;;;;5058181;28;20312;-75
2021/08/16 11:26:28;;;;;;;5.97;2.10;;;;;;;;;;5054914;28;20192;-74
2021/08/16 11:29:04;;;;;;;9.73;2.93;;;;;;;;;;5055888;28;20172;-75
2021/08/16 11:31:29;;;;;;;5.57;2.40;;;;;;;;;;5056229;28;20249;-76
2021/08/16 11:34:03;;;;;;;9.67;2.40;;;;;;;;;;5052470;28;20933;-77
2021/08/16 11:36:32;;;;;;;12.23;3.07;;;;;;;;;;5050298;28;20203;-75
2021/08/16 11:38:57;;;;;;;7.10;2.57;;;;;;;;;;5057463;28;20430;-74
2021/08/16 11:41:28;;;;;;;8.20;2.70;;;;;;;;;;5054921;28;20457;-75
2021/08/16 11:43:53;;;;;;;9.90;2.47;;;;;;;;;;5055697;28;20681;-75
2021/08/16 11:46:20;;;;;;;9.57;2.87;;;;;;;;;;5054441;28;20449;-75
2021/08/16 11:48:53;;;;;;;6.10;2.40;;;;;;;;;;5051867;28;20203;-75
2021/08/16 11:51:18;;;;;;;7.50;1.80;;;;;;;;;;5054424;28;20491;-75
2021/08/16 11:53:45;;;;;;;11.53;2.53;;;;;;;;;;5055400;28;21414;-75
2021/08/16 11:56:10;;;;;;;7.27;2.23;;;;;;;;;;5060734;28;20183;-75
2021/08/16 11:58:37;;;;;;;7.17;1.83;;;;;;;;;;5056419;28;20452;-75
2021/08/16 12:01:03;;;;;;;8.60;2.10;;;;;;;;;;5052679;28;20252;-75
2021/08/16 12:03:28;;;;;;;10.50;2.27;;;;;;;;;;5054581;28;20504;-75
2021/08/16 12:05:53;;;;;;;5.30;1.87;;;;;;;;;;5057700;28;20481;-74
2021/08/16 12:08:21;;;;;;;5.73;1.80;;;;;;;;;;5058354;28;20270;-75
2021/08/16 12:10:47;;;;;;;4.60;2.03;;;;;;;;;;5058266;28;20167;-75
2021/08/16 12:13:12;;;;;;;8.17;2.47;;;;;;;;;;5056809;28;20445;-76
2021/08/16 12:15:44;;;;;;;12.60;2.77;;;;;;;;;;5055433;28;20182;-75
2021/08/16 12:18:10;;;;;;;9.40;2.50;;;;;;;;;;5057929;28;20203;-76
2021/08/16 12:20:40;;;;;;;10.07;3.00;;;;;;;;;;5054974;28;20433;-75
2021/08/16 12:23:05;;;;;;;8.50;2.77;;;;;;;;;;5051749;28;20237;-75
2021/08/16 12:25:31;;;;;;;13.73;3.53;;;;;;;;;;5061537;28;20469;-76
2021/08/16 12:27:57;;;;;;;4.40;2.20;;;;;;;;;;5062026;28;20725;-75
2021/08/16 12:30:22;;;;;;;7.27;2.20;;;;;;;;;;5060060;28;20179;-75
2021/08/16 12:32:47;;;;;;;8.00;2.40;;;;;;;;;;5055750;28;20441;-76
2021/08/16 12:35:16;;;;;;;12.07;2.77;;;;;;;;;;5058217;28;20195;-75
2021/08/16 12:37:42;;;;;;;5.20;1.67;;;;;;;;;;5050154;28;20679;-75
2021/08/16 12:40:17;;;;;;;5.90;2.00;;;;;;;;;;5056414;28;20456;-76
2021/08/16 12:42:55;;;;;;;5.50;1.87;;;;;;;;;;5057200;28;20198;-76
2021/08/16 12:45:21;;;;;;;9.60;2.87;;;;;;;;;;5061707;28;20430;-76
2021/08/16 12:47:56;;;;;;;8.60;1.90;;;;;;;;;;5052656;28;20454;-75
2021/08/16 12:50:21;;;;;;;6.80;2.40;;;;;;;;;;5060618;28;20191;-76
2021/08/16 12:52:46;;;;;;;9.57;2.27;;;;;;;;;;5063546;28;20919;-75
2021/08/16 12:55:12;;;;;;;5.17;1.83;;;;;;;;;;5050317;28;20191;-75
2021/08/16 12:57:37;;;;;;;13.47;2.97;;;;;;;;;;5055518;28;20227;-77
2021/08/16 13:00:02;;;;;;;5.60;1.73;;;;;;;;;;5057283;28;20194;-76
2021/08/16 13:02:30;;;;;;;4.93;1.80;;;;;;;;;;5057712;28;20248;-75
2021/08/16 13:04:55;;;;;;;8.07;2.00;;;;;;;;;;5054415;28;20183;-75
2021/08/16 13:07:21;;;;;;;8.10;2.00;;;;;;;;;;5053651;28;20449;-77
2021/08/16 13:09:47;;;;;;;4.47;1.93;;;;;;;;;;5057035;28;20201;-76
2021/08/16 13:12:12;;;;;;;8.73;2.30;;;;;;;;;;5056469;28;20175;-76
2021/08/16 13:14:38;;;;;;;4.03;1.50;;;;;;;;;;5056663;28;20183;-77
2021/08/16 13:17:03;;;;;;;10.20;2.03;;;;;;;;;;5052351;28;20202;-76
2021/08/16 13:19:28;;;;;;;5.77;2.00;;;;;;;;;;5046727;28;20193;-75
2021/08/16 13:21:54;;;;;;;5.00;1.50;;;;;;;;;;5058845;28;20171;-75
2021/08/16 13:24:19;;;;;;;3.63;1.67;;;;;;;;;;5056498;28;20853;-77
2021/08/16 13:26:44;;;;;;;4.43;1.83;;;;;;;;;;5057012;28;20298;-76
2021/08/16 13:29:10;;;;;;;5.53;1.83;;;;;;;;;;5054320;28;20167;-76
2021/08/16 13:31:36;;;;;;;5.00;1.43;;;;;;;;;;5061062;28;20179;-75
2021/08/16 13:34:01;;;;;;;7.20;2.07;;;;;;;;;;5054977;28;20190;-75
2021/08/16 13:36:26;;;;;;;4.57;1.43;;;;;;;;;;5050338;28;20743;-75
2021/08/16 13:38:51;;;;;;;5.00;1.70;;;;;;;;;;5060107;28;20229;-75
2021/08/16 13:41:17;;;;;;;8.60;1.83;;;;;;;;;;5055056;28;20305;-74
2021/08/16 13:43:42;;;;;;;8.23;2.33;;;;;;;;;;5057948;28;20306;-76
2021/08/16 13:46:07;;;;;;;4.37;1.50;;;;;;;;;;5049970;28;20179;-75
2021/08/16 13:48:32;;;;;;;6.07;1.60;;;;;;;;;;5048625;28;20282;-75
2021/08/16 13:50:57;;;;;;;6.40;1.73;;;;;;;;;;5058856;28;20670;-75
2021/08/16 13:53:23;;;;;;;7.20;1.90;;;;;;;;;;5056488;28;20217;-77
2021/08/16 13:55:48;;;;;;;5.17;1.87;;;;;;;;;;5058886;28;20306;-75
2021/08/16 13:58:13;;;;;;;8.17;2.03;;;;;;;;;;5055681;28;20206;-75
2021/08/16 14:00:39;;;;;;;4.80;1.90;;;;;;;;;;5050367;28;20215;-75
2021/08/16 14:03:07;;;;;;;6.83;2.40;;;;;;;;;;5056140;28;20255;-75
2021/08/16 14:05:32;;;;;;;4.23;1.73;;;;;;;;;;5058932;28;20444;-76
2021/08/16 14:07:57;;;;;;;11.30;2.17;;;;;;;;;;5055959;28;20454;-75
2021/08/16 14:10:22;;;;;;;6.90;2.20;;;;;;;;;;5058778;28;20179;-74
2021/08/16 14:12:49;;;;;;;6.07;2.30;;;;;;;;;;5055657;28;20262;-76
2021/08/16 14:15:14;;;;;;;4.43;1.53;;;;;;;;;;5054439;28;20209;-75
2021/08/16 14:17:40;;;;;;;8.50;2.20;;;;;;;;;;5058769;28;20448;-75
2021/08/16 14:20:05;;;;;;;6.27;1.77;;;;;;;;;;5058251;28;20624;-75
2021/08/16 14:22:31;;;;;;;12.33;1.80;;;;;;;;;;5054359;28;20202;-77
2021/08/16 14:24:56;;;;;;;9.93;2.23;;;;;;;;;;5055904;28;20651;-75
2021/08/16 14:27:21;;;;;;;10.97;2.40;;;;;;;;;;5060292;28;20274;-75
2021/08/16 14:29:47;;;;;;;6.47;2.43;;;;;;;;;;5050789;28;20241;-75
2021/08/16 14:32:12;;;;;;;9.77;2.37;;;;;;;;;;5059256;28;20186;-76